sensor_id;sensor_type;location;lat;lon;timestamp;temperature;humidity
58447;DHT22;44240;51.840;7.258;2023-02-03T00:00:45;10.20;82.70
58447;DHT22;44240;51.840;7.258;2023-02-03T00:03:11;10.20;82.70
58447;DHT22;44240;51.840;7.258;2023-02-03T00:05:37;10.20;82.50
58447;DHT22;44240;51.840;7.258;2023-02-03T00:08:04;10.20;82.70
58447;DHT22;44240;51.840;7.258;2023-02-03T00:10:33;10.20;82.40
58447;DHT22;44240;51.840;7.258;2023-02-03T00:12:59;10.20;82.70
58447;DHT22;44240;51.840;7.258;2023-02-03T00:15:25;10.10;82.60
58447;DHT22;44240;51.840;7.258;2023-02-03T00:17:51;10.20;82.70
58447;DHT22;44240;51.840;7.258;2023-02-03T00:20:17;10.20;82.70
58447;DHT22;44240;51.840;7.258;2023-02-03T00:22:42;10.20;82.70
58447;DHT22;44240;51.840;7.258;2023-02-03T00:25:08;10.20;82.70
58447;DHT22;44240;51.840;7.258;2023-02-03T00:27:33;10.20;82.70
58447;DHT22;44240;51.840;7.258;2023-02-03T00:29:59;10.10;82.50
58447;DHT22;44240;51.840;7.258;2023-02-03T00:32:24;10.10;82.70
58447;DHT22;44240;51.840;7.258;2023-02-03T00:34:50;10.20;82.90
58447;DHT22;44240;51.840;7.258;2023-02-03T00:37:16;10.20;82.60
58447;DHT22;44240;51.840;7.258;2023-02-03T00:39:41;10.10;82.50
58447;DHT22;44240;51.840;7.258;2023-02-03T00:42:07;10.10;82.50
58447;DHT22;44240;51.840;7.258;2023-02-03T00:44:32;10.10;82.60
58447;DHT22;44240;51.840;7.258;2023-02-03T00:46:58;10.10;82.60
58447;DHT22;44240;51.840;7.258;2023-02-03T00:49:24;10.20;82.60
58447;DHT22;44240;51.840;7.258;2023-02-03T00:51:50;10.20;82.50
58447;DHT22;44240;51.840;7.258;2023-02-03T00:54:16;10.20;82.40
58447;DHT22;44240;51.840;7.258;2023-02-03T00:56:42;10.20;82.50
58447;DHT22;44240;51.840;7.258;2023-02-03T00:59:08;10.20;82.50
58447;DHT22;44240;51.840;7.258;2023-02-03T01:01:34;10.20;82.20
58447;DHT22;44240;51.840;7.258;2023-02-03T01:04:00;10.20;82.30
58447;DHT22;44240;51.840;7.258;2023-02-03T01:06:26;10.20;82.30
58447;DHT22;44240;51.840;7.258;2023-02-03T01:08:52;10.20;82.40
58447;DHT22;44240;51.840;7.258;2023-02-03T01:11:21;10.20;82.20
58447;DHT22;44240;51.840;7.258;2023-02-03T01:13:47;10.20;82.30
58447;DHT22;44240;51.840;7.258;2023-02-03T01:16:15;10.20;82.30
58447;DHT22;44240;51.840;7.258;2023-02-03T01:18:41;10.20;82.30
58447;DHT22;44240;51.840;7.258;2023-02-03T01:21:09;10.20;82.40
58447;DHT22;44240;51.840;7.258;2023-02-03T01:23:35;10.20;82.40
58447;DHT22;44240;51.840;7.258;2023-02-03T01:26:05;10.20;82.10
58447;DHT22;44240;51.840;7.258;2023-02-03T01:28:31;10.20;82.10
58447;DHT22;44240;51.840;7.258;2023-02-03T01:30:57;10.20;82.10
58447;DHT22;44240;51.840;7.258;2023-02-03T01:33:23;10.20;82.00
58447;DHT22;44240;51.840;7.258;2023-02-03T01:35:48;10.20;81.80
58447;DHT22;44240;51.840;7.258;2023-02-03T01:38:14;10.30;82.10
58447;DHT22;44240;51.840;7.258;2023-02-03T01:40:43;10.30;81.90
58447;DHT22;44240;51.840;7.258;2023-02-03T01:43:28;10.30;81.70
58447;DHT22;44240;51.840;7.258;2023-02-03T01:45:54;10.40;81.60
58447;DHT22;44240;51.840;7.258;2023-02-03T01:48:19;10.30;81.50
58447;DHT22;44240;51.840;7.258;2023-02-03T01:50:45;10.30;81.40
58447;DHT22;44240;51.840;7.258;2023-02-03T01:53:11;10.30;81.60
58447;DHT22;44240;51.840;7.258;2023-02-03T01:55:41;10.30;81.40
58447;DHT22;44240;51.840;7.258;2023-02-03T01:58:17;10.30;81.60
58447;DHT22;44240;51.840;7.258;2023-02-03T02:00:45;10.30;81.70
58447;DHT22;44240;51.840;7.258;2023-02-03T02:03:12;10.30;81.50
58447;DHT22;44240;51.840;7.258;2023-02-03T02:05:55;10.30;81.30
58447;DHT22;44240;51.840;7.258;2023-02-03T02:08:23;10.30;81.30
58447;DHT22;44240;51.840;7.258;2023-02-03T02:10:49;10.30;81.10
58447;DHT22;44240;51.840;7.258;2023-02-03T02:13:16;10.30;81.20
58447;DHT22;44240;51.840;7.258;2023-02-03T02:15:53;10.30;81.20
58447;DHT22;44240;51.840;7.258;2023-02-03T02:24:09;10.40;81.20
58447;DHT22;44240;51.840;7.258;2023-02-03T02:26:47;10.40;80.90
58447;DHT22;44240;51.840;7.258;2023-02-03T02:29:31;10.40;81.00
58447;DHT22;44240;51.840;7.258;2023-02-03T02:34:44;10.30;80.80
58447;DHT22;44240;51.840;7.258;2023-02-03T02:40:21;10.40;80.70
58447;DHT22;44240;51.840;7.258;2023-02-03T02:42:57;10.30;80.60
58447;DHT22;44240;51.840;7.258;2023-02-03T02:45:29;10.30;80.70
58447;DHT22;44240;51.840;7.258;2023-02-03T02:48:11;10.40;80.70
58447;DHT22;44240;51.840;7.258;2023-02-03T02:50:41;10.40;80.70
58447;DHT22;44240;51.840;7.258;2023-02-03T02:53:09;10.40;80.60
58447;DHT22;44240;51.840;7.258;2023-02-03T02:55:37;10.40;80.60
58447;DHT22;44240;51.840;7.258;2023-02-03T02:58:09;10.40;80.60
58447;DHT22;44240;51.840;7.258;2023-02-03T03:00:36;10.40;80.50
58447;DHT22;44240;51.840;7.258;2023-02-03T03:03:22;10.40;80.40
58447;DHT22;44240;51.840;7.258;2023-02-03T03:05:54;10.40;80.40
58447;DHT22;44240;51.840;7.258;2023-02-03T03:08:26;10.40;80.50
58447;DHT22;44240;51.840;7.258;2023-02-03T03:10:55;10.40;80.50
58447;DHT22;44240;51.840;7.258;2023-02-03T03:13:24;10.40;80.50
58447;DHT22;44240;51.840;7.258;2023-02-03T03:15:53;10.40;80.50
58447;DHT22;44240;51.840;7.258;2023-02-03T03:18:24;10.40;80.30
58447;DHT22;44240;51.840;7.258;2023-02-03T03:20:55;10.40;80.30
58447;DHT22;44240;51.840;7.258;2023-02-03T03:23:26;10.40;80.50
58447;DHT22;44240;51.840;7.258;2023-02-03T03:25:59;10.30;80.30
58447;DHT22;44240;51.840;7.258;2023-02-03T03:28:41;10.30;80.10
58447;DHT22;44240;51.840;7.258;2023-02-03T03:31:09;10.30;80.20
58447;DHT22;44240;51.840;7.258;2023-02-03T03:33:35;10.20;81.50
58447;DHT22;44240;51.840;7.258;2023-02-03T03:36:06;10.20;80.40
58447;DHT22;44240;51.840;7.258;2023-02-03T03:38:43;10.30;80.10
58447;DHT22;44240;51.840;7.258;2023-02-03T03:41:34;10.30;80.00
58447;DHT22;44240;51.840;7.258;2023-02-03T03:44:03;10.30;80.00
58447;DHT22;44240;51.840;7.258;2023-02-03T03:46:38;10.30;80.00
58447;DHT22;44240;51.840;7.258;2023-02-03T03:49:06;10.30;79.70
58447;DHT22;44240;51.840;7.258;2023-02-03T03:51:37;10.30;79.90
58447;DHT22;44240;51.840;7.258;2023-02-03T03:54:07;10.30;79.60
58447;DHT22;44240;51.840;7.258;2023-02-03T03:56:42;10.30;79.60
58447;DHT22;44240;51.840;7.258;2023-02-03T03:59:11;10.30;79.60
58447;DHT22;44240;51.840;7.258;2023-02-03T04:01:38;10.30;79.20
58447;DHT22;44240;51.840;7.258;2023-02-03T04:04:07;10.30;78.90
58447;DHT22;44240;51.840;7.258;2023-02-03T04:06:33;10.30;78.70
58447;DHT22;44240;51.840;7.258;2023-02-03T04:08:59;10.30;78.70
58447;DHT22;44240;51.840;7.258;2023-02-03T04:11:26;10.30;78.80
58447;DHT22;44240;51.840;7.258;2023-02-03T04:14:10;10.40;78.70
58447;DHT22;44240;51.840;7.258;2023-02-03T04:16:36;10.30;78.50
58447;DHT22;44240;51.840;7.258;2023-02-03T04:19:01;10.40;78.70
58447;DHT22;44240;51.840;7.258;2023-02-03T04:21:27;10.40;78.40
58447;DHT22;44240;51.840;7.258;2023-02-03T04:23:52;10.50;78.40
58447;DHT22;44240;51.840;7.258;2023-02-03T04:26:18;10.40;78.40
58447;DHT22;44240;51.840;7.258;2023-02-03T04:28:44;10.40;78.10
58447;DHT22;44240;51.840;7.258;2023-02-03T04:31:09;10.40;78.40
58447;DHT22;44240;51.840;7.258;2023-02-03T04:33:35;10.40;78.00
58447;DHT22;44240;51.840;7.258;2023-02-03T04:36:00;10.40;78.30
58447;DHT22;44240;51.840;7.258;2023-02-03T04:38:25;10.40;78.40
58447;DHT22;44240;51.840;7.258;2023-02-03T04:40:51;10.40;78.30
58447;DHT22;44240;51.840;7.258;2023-02-03T04:43:16;10.40;78.40
58447;DHT22;44240;51.840;7.258;2023-02-03T04:45:42;10.40;78.50
58447;DHT22;44240;51.840;7.258;2023-02-03T04:48:07;10.40;78.40
58447;DHT22;44240;51.840;7.258;2023-02-03T04:50:33;10.40;78.40
58447;DHT22;44240;51.840;7.258;2023-02-03T04:52:59;10.40;79.50
58447;DHT22;44240;51.840;7.258;2023-02-03T04:55:26;10.40;78.20
58447;DHT22;44240;51.840;7.258;2023-02-03T04:57:58;10.40;78.40
58447;DHT22;44240;51.840;7.258;2023-02-03T05:00:27;10.40;78.40
58447;DHT22;44240;51.840;7.258;2023-02-03T05:02:54;10.40;78.40
58447;DHT22;44240;51.840;7.258;2023-02-03T05:05:20;10.40;78.40
58447;DHT22;44240;51.840;7.258;2023-02-03T05:07:45;10.50;78.10
58447;DHT22;44240;51.840;7.258;2023-02-03T05:10:11;10.40;78.00
58447;DHT22;44240;51.840;7.258;2023-02-03T05:12:36;10.40;77.80
58447;DHT22;44240;51.840;7.258;2023-02-03T05:15:02;10.40;78.00
58447;DHT22;44240;51.840;7.258;2023-02-03T05:17:28;10.40;78.00
58447;DHT22;44240;51.840;7.258;2023-02-03T05:19:53;10.40;77.90
58447;DHT22;44240;51.840;7.258;2023-02-03T05:22:19;10.40;78.10
58447;DHT22;44240;51.840;7.258;2023-02-03T05:24:44;10.30;78.20
58447;DHT22;44240;51.840;7.258;2023-02-03T05:27:10;10.40;78.30
58447;DHT22;44240;51.840;7.258;2023-02-03T05:29:36;10.40;78.10
58447;DHT22;44240;51.840;7.258;2023-02-03T05:32:01;10.40;78.20
58447;DHT22;44240;51.840;7.258;2023-02-03T05:34:27;10.40;78.00
58447;DHT22;44240;51.840;7.258;2023-02-03T05:36:52;10.30;77.90
58447;DHT22;44240;51.840;7.258;2023-02-03T05:39:18;10.30;78.10
58447;DHT22;44240;51.840;7.258;2023-02-03T05:41:43;10.30;78.00
58447;DHT22;44240;51.840;7.258;2023-02-03T05:44:22;10.40;78.10
58447;DHT22;44240;51.840;7.258;2023-02-03T05:46:49;10.40;77.80
58447;DHT22;44240;51.840;7.258;2023-02-03T05:49:15;10.40;77.80
58447;DHT22;44240;51.840;7.258;2023-02-03T05:51:41;10.40;77.70
58447;DHT22;44240;51.840;7.258;2023-02-03T05:54:07;10.40;77.70
58447;DHT22;44240;51.840;7.258;2023-02-03T05:56:32;10.40;77.70
58447;DHT22;44240;51.840;7.258;2023-02-03T05:58:58;10.50;77.50
58447;DHT22;44240;51.840;7.258;2023-02-03T06:01:23;10.50;77.50
58447;DHT22;44240;51.840;7.258;2023-02-03T06:03:49;10.50;77.50
58447;DHT22;44240;51.840;7.258;2023-02-03T06:06:15;10.50;77.40
58447;DHT22;44240;51.840;7.258;2023-02-03T06:08:41;10.60;77.40
58447;DHT22;44240;51.840;7.258;2023-02-03T06:11:07;10.50;77.10
58447;DHT22;44240;51.840;7.258;2023-02-03T06:13:33;10.50;77.20
58447;DHT22;44240;51.840;7.258;2023-02-03T06:15:58;10.50;77.30
58447;DHT22;44240;51.840;7.258;2023-02-03T06:18:24;10.60;77.20
58447;DHT22;44240;51.840;7.258;2023-02-03T06:20:49;10.60;77.20
58447;DHT22;44240;51.840;7.258;2023-02-03T06:23:15;10.60;77.10
58447;DHT22;44240;51.840;7.258;2023-02-03T06:25:47;10.60;77.00
58447;DHT22;44240;51.840;7.258;2023-02-03T06:28:12;10.60;77.00
58447;DHT22;44240;51.840;7.258;2023-02-03T06:30:38;10.60;77.20
58447;DHT22;44240;51.840;7.258;2023-02-03T06:33:03;10.60;77.20
58447;DHT22;44240;51.840;7.258;2023-02-03T06:35:29;10.60;77.20
58447;DHT22;44240;51.840;7.258;2023-02-03T06:37:54;10.60;77.20
58447;DHT22;44240;51.840;7.258;2023-02-03T06:40:20;10.60;77.20
58447;DHT22;44240;51.840;7.258;2023-02-03T06:42:46;10.60;76.90
58447;DHT22;44240;51.840;7.258;2023-02-03T06:45:13;10.60;77.00
58447;DHT22;44240;51.840;7.258;2023-02-03T06:47:40;10.60;77.10
58447;DHT22;44240;51.840;7.258;2023-02-03T06:50:06;10.60;77.00
58447;DHT22;44240;51.840;7.258;2023-02-03T06:52:32;10.60;77.20
58447;DHT22;44240;51.840;7.258;2023-02-03T06:54:57;10.60;77.20
58447;DHT22;44240;51.840;7.258;2023-02-03T06:57:22;10.60;77.10
58447;DHT22;44240;51.840;7.258;2023-02-03T06:59:48;10.60;77.10
58447;DHT22;44240;51.840;7.258;2023-02-03T07:02:14;10.60;77.20
58447;DHT22;44240;51.840;7.258;2023-02-03T07:04:40;10.60;78.10
58447;DHT22;44240;51.840;7.258;2023-02-03T07:07:05;10.70;77.00
58447;DHT22;44240;51.840;7.258;2023-02-03T07:09:31;10.70;76.80
58447;DHT22;44240;51.840;7.258;2023-02-03T07:11:56;10.70;76.80
58447;DHT22;44240;51.840;7.258;2023-02-03T07:14:22;10.80;76.70
58447;DHT22;44240;51.840;7.258;2023-02-03T07:16:47;10.80;76.50
58447;DHT22;44240;51.840;7.258;2023-02-03T07:19:13;10.80;76.50
58447;DHT22;44240;51.840;7.258;2023-02-03T07:21:38;10.80;76.70
58447;DHT22;44240;51.840;7.258;2023-02-03T07:24:04;10.80;76.60
58447;DHT22;44240;51.840;7.258;2023-02-03T07:26:30;10.80;76.50
58447;DHT22;44240;51.840;7.258;2023-02-03T07:28:55;10.90;76.40
58447;DHT22;44240;51.840;7.258;2023-02-03T07:31:23;10.90;76.30
58447;DHT22;44240;51.840;7.258;2023-02-03T07:33:48;10.90;76.30
58447;DHT22;44240;51.840;7.258;2023-02-03T07:36:14;10.90;76.20
58447;DHT22;44240;51.840;7.258;2023-02-03T07:38:39;11.00;76.20
58447;DHT22;44240;51.840;7.258;2023-02-03T07:41:05;10.90;76.20
58447;DHT22;44240;51.840;7.258;2023-02-03T07:43:31;11.00;76.00
58447;DHT22;44240;51.840;7.258;2023-02-03T07:45:56;11.00;76.00
58447;DHT22;44240;51.840;7.258;2023-02-03T07:48:22;11.00;76.00
58447;DHT22;44240;51.840;7.258;2023-02-03T07:50:47;11.00;76.00
58447;DHT22;44240;51.840;7.258;2023-02-03T07:53:15;11.00;76.10
58447;DHT22;44240;51.840;7.258;2023-02-03T07:55:41;11.00;76.10
58447;DHT22;44240;51.840;7.258;2023-02-03T07:58:06;11.00;76.20
58447;DHT22;44240;51.840;7.258;2023-02-03T08:00:32;11.00;76.00
58447;DHT22;44240;51.840;7.258;2023-02-03T08:02:58;10.90;76.20
58447;DHT22;44240;51.840;7.258;2023-02-03T08:05:24;11.00;76.40
58447;DHT22;44240;51.840;7.258;2023-02-03T08:07:49;11.00;76.20
58447;DHT22;44240;51.840;7.258;2023-02-03T08:10:15;10.90;76.20
58447;DHT22;44240;51.840;7.258;2023-02-03T08:12:42;11.00;76.20
58447;DHT22;44240;51.840;7.258;2023-02-03T08:15:09;11.00;76.30
58447;DHT22;44240;51.840;7.258;2023-02-03T08:17:34;11.00;76.20
58447;DHT22;44240;51.840;7.258;2023-02-03T08:20:00;11.00;76.30
58447;DHT22;44240;51.840;7.258;2023-02-03T08:22:26;11.10;76.20
58447;DHT22;44240;51.840;7.258;2023-02-03T08:24:51;11.00;76.10
58447;DHT22;44240;51.840;7.258;2023-02-03T08:27:19;11.00;76.30
58447;DHT22;44240;51.840;7.258;2023-02-03T08:29:45;11.00;76.40
58447;DHT22;44240;51.840;7.258;2023-02-03T08:32:14;11.00;76.60
58447;DHT22;44240;51.840;7.258;2023-02-03T08:34:40;11.00;76.60
58447;DHT22;44240;51.840;7.258;2023-02-03T08:37:06;11.00;76.60
58447;DHT22;44240;51.840;7.258;2023-02-03T08:39:32;11.00;76.70
58447;DHT22;44240;51.840;7.258;2023-02-03T08:41:59;10.90;76.70
58447;DHT22;44240;51.840;7.258;2023-02-03T08:44:25;11.00;76.80
58447;DHT22;44240;51.840;7.258;2023-02-03T08:46:51;11.00;76.70
58447;DHT22;44240;51.840;7.258;2023-02-03T08:49:19;11.00;76.70
58447;DHT22;44240;51.840;7.258;2023-02-03T08:51:46;11.00;76.70
58447;DHT22;44240;51.840;7.258;2023-02-03T08:54:12;11.00;76.80
58447;DHT22;44240;51.840;7.258;2023-02-03T08:56:37;11.00;76.80
58447;DHT22;44240;51.840;7.258;2023-02-03T08:59:03;11.00;76.80
58447;DHT22;44240;51.840;7.258;2023-02-03T09:01:29;11.00;76.80
58447;DHT22;44240;51.840;7.258;2023-02-03T09:03:54;11.10;76.70
58447;DHT22;44240;51.840;7.258;2023-02-03T09:06:20;11.00;76.70
58447;DHT22;44240;51.840;7.258;2023-02-03T09:08:47;11.00;76.70
58447;DHT22;44240;51.840;7.258;2023-02-03T09:11:15;11.10;76.80
58447;DHT22;44240;51.840;7.258;2023-02-03T09:13:41;11.00;76.80
58447;DHT22;44240;51.840;7.258;2023-02-03T09:16:14;11.00;77.00
58447;DHT22;44240;51.840;7.258;2023-02-03T09:18:43;11.00;76.90
58447;DHT22;44240;51.840;7.258;2023-02-03T09:21:10;11.10;76.80
58447;DHT22;44240;51.840;7.258;2023-02-03T09:23:36;11.00;77.00
58447;DHT22;44240;51.840;7.258;2023-02-03T09:26:03;11.00;76.90
58447;DHT22;44240;51.840;7.258;2023-02-03T09:28:29;11.10;76.90
58447;DHT22;44240;51.840;7.258;2023-02-03T09:30:59;11.10;76.90
58447;DHT22;44240;51.840;7.258;2023-02-03T09:33:25;11.10;77.10
58447;DHT22;44240;51.840;7.258;2023-02-03T09:35:52;11.10;77.00
58447;DHT22;44240;51.840;7.258;2023-02-03T09:38:17;11.10;77.00
58447;DHT22;44240;51.840;7.258;2023-02-03T09:40:43;11.10;77.10
58447;DHT22;44240;51.840;7.258;2023-02-03T09:43:33;11.10;76.90
58447;DHT22;44240;51.840;7.258;2023-02-03T09:46:04;11.10;77.00
58447;DHT22;44240;51.840;7.258;2023-02-03T09:48:42;11.10;76.90
58447;DHT22;44240;51.840;7.258;2023-02-03T09:51:37;11.10;77.00
58447;DHT22;44240;51.840;7.258;2023-02-03T09:54:34;11.20;77.10
58447;DHT22;44240;51.840;7.258;2023-02-03T09:57:05;11.10;77.00
58447;DHT22;44240;51.840;7.258;2023-02-03T09:59:35;11.10;77.30
58447;DHT22;44240;51.840;7.258;2023-02-03T10:10:33;11.20;77.30
58447;DHT22;44240;51.840;7.258;2023-02-03T10:18:20;11.10;78.00
58447;DHT22;44240;51.840;7.258;2023-02-03T10:21:01;11.10;77.40
58447;DHT22;44240;51.840;7.258;2023-02-03T10:23:34;11.20;77.50
58447;DHT22;44240;51.840;7.258;2023-02-03T10:26:05;11.20;77.50
58447;DHT22;44240;51.840;7.258;2023-02-03T10:28:47;11.20;77.30
58447;DHT22;44240;51.840;7.258;2023-02-03T10:31:20;11.20;77.60
58447;DHT22;44240;51.840;7.258;2023-02-03T10:33:59;11.20;77.50
58447;DHT22;44240;51.840;7.258;2023-02-03T10:36:36;11.20;77.50
58447;DHT22;44240;51.840;7.258;2023-02-03T10:41:56;11.20;77.70
58447;DHT22;44240;51.840;7.258;2023-02-03T10:44:58;11.20;77.60
58447;DHT22;44240;51.840;7.258;2023-02-03T10:47:31;11.20;77.50
58447;DHT22;44240;51.840;7.258;2023-02-03T10:50:06;11.30;77.60
58447;DHT22;44240;51.840;7.258;2023-02-03T10:52:35;11.30;77.50
58447;DHT22;44240;51.840;7.258;2023-02-03T10:55:28;11.30;77.50
58447;DHT22;44240;51.840;7.258;2023-02-03T10:57:55;11.30;77.20
58447;DHT22;44240;51.840;7.258;2023-02-03T11:00:27;11.30;77.50
58447;DHT22;44240;51.840;7.258;2023-02-03T11:03:03;11.30;77.60
58447;DHT22;44240;51.840;7.258;2023-02-03T11:05:29;11.30;77.60
58447;DHT22;44240;51.840;7.258;2023-02-03T11:07:55;11.30;77.60
58447;DHT22;44240;51.840;7.258;2023-02-03T11:13:19;11.30;77.50
58447;DHT22;44240;51.840;7.258;2023-02-03T11:18:54;11.40;77.70
58447;DHT22;44240;51.840;7.258;2023-02-03T11:24:27;11.40;77.70
58447;DHT22;44240;51.840;7.258;2023-02-03T11:26:57;11.40;77.60
58447;DHT22;44240;51.840;7.258;2023-02-03T11:29:29;11.30;77.60
58447;DHT22;44240;51.840;7.258;2023-02-03T11:31:57;11.40;77.70
58447;DHT22;44240;51.840;7.258;2023-02-03T11:34:32;11.40;77.70
58447;DHT22;44240;51.840;7.258;2023-02-03T11:37:27;11.40;78.10
58447;DHT22;44240;51.840;7.258;2023-02-03T11:40:11;11.40;78.10
58447;DHT22;44240;51.840;7.258;2023-02-03T11:42:39;11.30;78.50
58447;DHT22;44240;51.840;7.258;2023-02-03T11:45:24;11.30;78.90
58447;DHT22;44240;51.840;7.258;2023-02-03T11:48:12;11.30;78.90
58447;DHT22;44240;51.840;7.258;2023-02-03T11:50:59;11.20;79.30
58447;DHT22;44240;51.840;7.258;2023-02-03T12:05:05;11.20;80.40
58447;DHT22;44240;51.840;7.258;2023-02-03T12:13:16;11.10;80.80
58447;DHT22;44240;51.840;7.258;2023-02-03T12:18:44;11.00;81.10
58447;DHT22;44240;51.840;7.258;2023-02-03T12:29:48;11.00;80.80
58447;DHT22;44240;51.840;7.258;2023-02-03T12:32:45;11.00;81.20
58447;DHT22;44240;51.840;7.258;2023-02-03T12:35:38;11.10;81.00
58447;DHT22;44240;51.840;7.258;2023-02-03T12:38:28;11.10;80.40
58447;DHT22;44240;51.840;7.258;2023-02-03T12:41:00;11.00;79.90
58447;DHT22;44240;51.840;7.258;2023-02-03T12:43:37;11.00;79.80
58447;DHT22;44240;51.840;7.258;2023-02-03T12:48:58;11.00;80.00
58447;DHT22;44240;51.840;7.258;2023-02-03T13:05:48;11.00;79.20
58447;DHT22;44240;51.840;7.258;2023-02-03T13:10:51;11.00;78.80
58447;DHT22;44240;51.840;7.258;2023-02-03T13:13:41;11.00;78.80
58447;DHT22;44240;51.840;7.258;2023-02-03T13:16:08;11.00;78.60
58447;DHT22;44240;51.840;7.258;2023-02-03T13:18:43;11.00;78.30
58447;DHT22;44240;51.840;7.258;2023-02-03T13:21:10;11.00;78.10
58447;DHT22;44240;51.840;7.258;2023-02-03T13:23:39;11.00;77.90
58447;DHT22;44240;51.840;7.258;2023-02-03T13:32:05;11.00;77.90
58447;DHT22;44240;51.840;7.258;2023-02-03T13:34:59;11.00;77.70
58447;DHT22;44240;51.840;7.258;2023-02-03T13:43:14;11.00;76.80
58447;DHT22;44240;51.840;7.258;2023-02-03T13:45:49;11.00;76.60
58447;DHT22;44240;51.840;7.258;2023-02-03T13:48:24;11.00;76.20
58447;DHT22;44240;51.840;7.258;2023-02-03T13:51:01;11.00;76.00
58447;DHT22;44240;51.840;7.258;2023-02-03T13:53:34;11.00;76.00
58447;DHT22;44240;51.840;7.258;2023-02-03T13:56:02;11.10;75.90
58447;DHT22;44240;51.840;7.258;2023-02-03T13:58:31;11.10;75.80
58447;DHT22;44240;51.840;7.258;2023-02-03T14:01:06;11.10;75.80
58447;DHT22;44240;51.840;7.258;2023-02-03T14:03:50;11.10;75.60
58447;DHT22;44240;51.840;7.258;2023-02-03T14:09:00;11.20;75.00
58447;DHT22;44240;51.840;7.258;2023-02-03T14:16:35;11.10;74.30
58447;DHT22;44240;51.840;7.258;2023-02-03T14:19:01;11.10;73.80
58447;DHT22;44240;51.840;7.258;2023-02-03T14:21:30;11.10;73.20
58447;DHT22;44240;51.840;7.258;2023-02-03T14:24:04;11.10;73.50
58447;DHT22;44240;51.840;7.258;2023-02-03T14:26:58;11.10;73.30
58447;DHT22;44240;51.840;7.258;2023-02-03T14:29:34;11.10;72.90
58447;DHT22;44240;51.840;7.258;2023-02-03T14:32:06;11.10;72.40
58447;DHT22;44240;51.840;7.258;2023-02-03T14:34:44;11.10;70.90
58447;DHT22;44240;51.840;7.258;2023-02-03T14:37:20;11.00;70.50
58447;DHT22;44240;51.840;7.258;2023-02-03T14:43:17;11.00;70.70
58447;DHT22;44240;51.840;7.258;2023-02-03T14:54:38;11.00;70.30
58447;DHT22;44240;51.840;7.258;2023-02-03T14:57:24;11.00;70.60
58447;DHT22;44240;51.840;7.258;2023-02-03T15:00:23;11.00;70.40
58447;DHT22;44240;51.840;7.258;2023-02-03T15:05:37;11.00;70.20
58447;DHT22;44240;51.840;7.258;2023-02-03T15:08:03;11.00;69.80
58447;DHT22;44240;51.840;7.258;2023-02-03T15:10:40;11.00;69.30
58447;DHT22;44240;51.840;7.258;2023-02-03T15:13:29;11.00;69.10
58447;DHT22;44240;51.840;7.258;2023-02-03T15:16:01;11.00;69.10
58447;DHT22;44240;51.840;7.258;2023-02-03T15:18:29;10.90;69.00
58447;DHT22;44240;51.840;7.258;2023-02-03T15:20:56;11.00;68.90
58447;DHT22;44240;51.840;7.258;2023-02-03T15:23:27;11.00;69.10
58447;DHT22;44240;51.840;7.258;2023-02-03T15:26:01;11.00;68.60
58447;DHT22;44240;51.840;7.258;2023-02-03T15:28:28;11.00;69.70
58447;DHT22;44240;51.840;7.258;2023-02-03T15:31:05;11.00;67.70
58447;DHT22;44240;51.840;7.258;2023-02-03T15:33:31;11.00;67.70
58447;DHT22;44240;51.840;7.258;2023-02-03T15:36:11;11.00;68.10
58447;DHT22;44240;51.840;7.258;2023-02-03T15:38:43;11.00;67.30
58447;DHT22;44240;51.840;7.258;2023-02-03T15:41:19;11.00;67.10
58447;DHT22;44240;51.840;7.258;2023-02-03T15:43:46;10.90;66.80
58447;DHT22;44240;51.840;7.258;2023-02-03T15:46:30;10.90;66.80
58447;DHT22;44240;51.840;7.258;2023-02-03T15:49:02;10.90;66.60
58447;DHT22;44240;51.840;7.258;2023-02-03T15:51:34;10.90;66.20
58447;DHT22;44240;51.840;7.258;2023-02-03T15:54:23;10.90;66.20
58447;DHT22;44240;51.840;7.258;2023-02-03T15:57:07;10.90;66.80
58447;DHT22;44240;51.840;7.258;2023-02-03T15:59:40;10.90;66.60
58447;DHT22;44240;51.840;7.258;2023-02-03T16:02:28;10.80;66.30
58447;DHT22;44240;51.840;7.258;2023-02-03T16:04:55;10.90;66.10
58447;DHT22;44240;51.840;7.258;2023-02-03T16:07:23;10.80;65.60
58447;DHT22;44240;51.840;7.258;2023-02-03T16:09:54;10.80;65.80
58447;DHT22;44240;51.840;7.258;2023-02-03T16:12:29;10.80;65.90
58447;DHT22;44240;51.840;7.258;2023-02-03T16:14:56;10.70;66.20
58447;DHT22;44240;51.840;7.258;2023-02-03T16:17:36;10.70;65.80
58447;DHT22;44240;51.840;7.258;2023-02-03T16:22:41;10.70;66.30
58447;DHT22;44240;51.840;7.258;2023-02-03T16:25:23;10.60;65.80
58447;DHT22;44240;51.840;7.258;2023-02-03T16:31:10;10.60;66.20
58447;DHT22;44240;51.840;7.258;2023-02-03T16:33:56;10.60;66.10
58447;DHT22;44240;51.840;7.258;2023-02-03T16:36:41;10.50;66.00
58447;DHT22;44240;51.840;7.258;2023-02-03T16:39:26;10.50;65.90
58447;DHT22;44240;51.840;7.258;2023-02-03T16:42:18;10.50;65.80
58447;DHT22;44240;51.840;7.258;2023-02-03T16:45:25;10.50;65.80
58447;DHT22;44240;51.840;7.258;2023-02-03T16:48:10;10.40;65.50
58447;DHT22;44240;51.840;7.258;2023-02-03T16:50:54;10.40;65.90
58447;DHT22;44240;51.840;7.258;2023-02-03T16:53:31;10.40;65.50
58447;DHT22;44240;51.840;7.258;2023-02-03T16:55:59;10.40;65.00
58447;DHT22;44240;51.840;7.258;2023-02-03T16:58:24;10.40;65.30
58447;DHT22;44240;51.840;7.258;2023-02-03T17:00:51;10.40;64.80
58447;DHT22;44240;51.840;7.258;2023-02-03T17:03:23;10.30;64.60
58447;DHT22;44240;51.840;7.258;2023-02-03T17:05:49;10.40;64.60
58447;DHT22;44240;51.840;7.258;2023-02-03T17:08:17;10.30;64.80
58447;DHT22;44240;51.840;7.258;2023-02-03T17:10:44;10.30;64.90
58447;DHT22;44240;51.840;7.258;2023-02-03T17:13:11;10.30;64.80
58447;DHT22;44240;51.840;7.258;2023-02-03T17:15:41;10.30;65.00
58447;DHT22;44240;51.840;7.258;2023-02-03T17:18:07;10.30;65.10
58447;DHT22;44240;51.840;7.258;2023-02-03T17:20:33;10.30;65.00
58447;DHT22;44240;51.840;7.258;2023-02-03T17:22:58;10.30;64.80
58447;DHT22;44240;51.840;7.258;2023-02-03T17:25:24;10.20;65.20
58447;DHT22;44240;51.840;7.258;2023-02-03T17:27:49;10.20;65.60
58447;DHT22;44240;51.840;7.258;2023-02-03T17:30:15;10.20;66.00
58447;DHT22;44240;51.840;7.258;2023-02-03T17:32:41;10.20;66.40
58447;DHT22;44240;51.840;7.258;2023-02-03T17:35:07;10.20;66.60
58447;DHT22;44240;51.840;7.258;2023-02-03T17:37:33;10.20;67.00
58447;DHT22;44240;51.840;7.258;2023-02-03T17:39:58;10.20;67.20
58447;DHT22;44240;51.840;7.258;2023-02-03T17:42:24;10.20;67.50
58447;DHT22;44240;51.840;7.258;2023-02-03T17:44:49;10.10;67.70
58447;DHT22;44240;51.840;7.258;2023-02-03T17:47:15;10.10;67.80
58447;DHT22;44240;51.840;7.258;2023-02-03T17:49:41;10.10;67.90
58447;DHT22;44240;51.840;7.258;2023-02-03T17:52:09;10.10;68.00
58447;DHT22;44240;51.840;7.258;2023-02-03T17:54:34;10.10;68.10